1979 ALICE (1978361N02180)


On this page: IBTrACS data - Map and Plots - Positions - Intensities - Original source data

Summary

Start Dec 27
End Jan 15
Basin WP
LMI 110 kt
Sources jtwc_wp
tokyo
cma
hko
td9636
ds824_wp
In WMO? Yes
Previous storm 1979 04P (SP)
Previous in basin 1978 MISSING (WP)
Concurrent storms 1979 02S (SI)
1979 04P (SP)
1979 ALICE (WP)
1979 ANGELE (SI)
1979 05P (SP)
1979 06P (SP)
1979 07S (SI)
1979 08P (SP)
Next in basin Missing
Next storm 1979 ANGELE (SI)

top of page IBTrACS Data: File Access

Image of storm

top of page Plots:

Map of storm track will not appear if FTP is down
Time series of cyclone Maximum Sustained Wind will not appear if FTP is down
Time series of cyclone Minimum Central Pressure will not appear if FTP is down

top of page Track Data:Position

jtwc_wp tokyo cma hko td9636 ds824_wp
Date Lat Lon Lat Lon Lat Lon Lat Lon Lat Lon Lat Lon
1978-12-27 06:00:00 1.5 179.7
1978-12-27 12:00:00 1.5 179.4
1978-12-27 18:00:00 1.5 179.0
1978-12-28 00:00:00 1.5 178.5
1978-12-28 06:00:00 1.5 178.0
1978-12-28 12:00:00 1.5 177.5
1978-12-28 18:00:00 1.5 177.1
1978-12-29 00:00:00 1.5 176.7
1978-12-29 06:00:00 1.5 176.1
1978-12-29 12:00:00 1.5 175.6
1978-12-29 18:00:00 1.5 175.3
1978-12-30 00:00:00 1.5 175.0
1978-12-30 06:00:00 1.5 174.5
1978-12-30 12:00:00 1.5 174.0
1978-12-30 18:00:00 1.6 173.5
1978-12-31 00:00:00 1.8 172.9
1978-12-31 06:00:00 2.0 174.0 1.9 172.2
1978-12-31 12:00:00 2.0 172.0 2.1 172.6 2.1 171.5
1978-12-31 18:00:00 2.4 171.7 2.3 171.6 2.2 171.1
1979-01-01 00:00:00 2.5 170.7 2.6 171.3 3.0 171.0 2.5 170.7 2.5 170.7
1979-01-01 06:00:00 3.1 170.1 3.3 170.7 3.7 170.1 3.1 170.2 3.1 170.1
1979-01-01 12:00:00 3.9 169.6 4.0 170.0 4.4 169.6 4.0 169.9 3.9 169.6 3.9 169.6
1979-01-01 18:00:00 4.6 169.2 4.6 169.4 5.0 169.1 4.6 169.3 4.6 169.1 4.6 169.2
1979-01-02 00:00:00 5.2 168.7 5.2 168.7 5.3 168.7 5.1 168.7 5.2 168.7 5.2 168.7
1979-01-02 06:00:00 5.7 168.2 5.7 168.2 5.6 168.0 5.6 168.0 5.7 168.2 5.7 168.2
jtwc_wp tokyo cma hko td9636 ds824_wp
1979-01-02 12:00:00 6.2 167.8 6.2 167.7 6.1 167.7 6.0 167.5 6.2 167.8 6.2 167.8
1979-01-02 18:00:00 6.7 167.7 6.8 167.7 6.6 168.0 6.5 167.5 6.7 167.8 6.7 167.7
1979-01-03 00:00:00 7.2 168.0 7.4 168.0 7.3 168.3 7.0 167.8 7.2 168.0 7.2 168.0
1979-01-03 06:00:00 8.0 168.3 8.0 168.5 8.0 168.0 7.6 168.3 7.9 168.1 8.0 168.3
1979-01-03 12:00:00 8.5 168.2 8.8 168.5 8.5 168.2 8.2 168.3 8.5 168.2 8.5 168.2
1979-01-03 18:00:00 8.9 168.1 9.0 168.3 9.0 168.3 8.8 168.1 8.9 168.2 8.9 168.1
1979-01-04 00:00:00 9.2 168.0 9.2 168.0 9.2 167.9 9.1 167.9 9.2 168.0 9.2 168.0
1979-01-04 06:00:00 9.4 167.8 9.4 167.3 9.3 167.3 9.4 167.4 9.4 167.5 9.4 167.8
1979-01-04 12:00:00 9.5 166.8 9.5 166.6 9.3 166.7 9.5 166.7 9.5 166.8 9.5 166.8
1979-01-04 18:00:00 9.5 166.0 9.6 165.8 9.5 165.9 9.5 166.0 9.5 166.0 9.5 166.0
1979-01-05 00:00:00 9.5 165.1 9.7 165.0 9.6 165.1 9.6 165.2 9.5 165.1 9.5 165.1
1979-01-05 06:00:00 9.7 164.4 9.9 164.3 9.7 164.2 9.8 164.5 9.7 164.4 9.7 164.4
1979-01-05 12:00:00 10.0 163.6 10.2 163.5 9.8 163.4 10.2 163.6 10.0 163.6 10.0 163.6
1979-01-05 18:00:00 10.6 162.7 10.8 162.5 10.4 162.6 10.6 162.7 10.5 162.7 10.6 162.7
1979-01-06 00:00:00 11.1 161.7 11.2 161.6 11.2 161.6 11.1 161.7 11.1 161.7 11.1 161.7
1979-01-06 06:00:00 11.6 160.6 11.6 160.5 12.0 160.4 11.6 160.8 11.6 160.5 11.6 160.6
1979-01-06 12:00:00 12.0 159.4 12.0 159.5 12.1 159.5 12.0 160.0 12.0 159.4 12.0 159.4
1979-01-06 18:00:00 12.2 158.6 12.2 158.5 12.2 158.5 12.2 158.8 12.2 158.6 12.2 158.6
1979-01-07 00:00:00 12.3 157.8 12.3 157.6 12.3 157.6 12.3 157.6 12.3 157.8 12.3 157.8
1979-01-07 06:00:00 12.3 156.6 12.4 156.4 12.4 156.5 12.4 156.4 12.3 156.7 12.3 156.6
1979-01-07 12:00:00 12.3 155.5 12.5 155.1 12.5 155.3 12.5 155.2 12.3 155.5 12.3 155.5
1979-01-07 18:00:00 12.2 154.4 12.3 154.0 12.2 154.0 12.4 154.0 12.2 154.3 12.2 154.4
1979-01-08 00:00:00 12.1 153.0 12.2 152.8 12.1 152.9 12.3 152.9 12.1 153.0 12.1 153.0
1979-01-08 06:00:00 12.0 151.5 12.0 151.7 12.0 151.5 12.0 151.6 12.0 151.6 12.0 151.5
jtwc_wp tokyo cma hko td9636 ds824_wp
1979-01-08 12:00:00 12.0 150.2 11.9 150.4 12.0 150.3 11.9 150.3 12.0 150.2 12.0 150.2
1979-01-08 18:00:00 11.9 149.0 11.8 149.0 11.9 149.0 11.7 149.0 11.9 149.0 11.9 149.0
1979-01-09 00:00:00 11.9 147.9 11.8 147.8 11.9 147.8 11.8 147.8 11.9 147.9 11.9 147.9
1979-01-09 06:00:00 12.1 146.6 12.0 146.5 12.1 146.7 12.1 146.6 12.0 146.7 12.1 146.6
1979-01-09 12:00:00 12.1 145.4 12.2 145.4 12.1 145.3 12.3 145.4 12.1 145.4 12.1 145.4
1979-01-09 18:00:00 12.0 144.2 11.9 144.0 11.9 144.2 11.8 144.2 11.9 144.2 12.0 144.2
1979-01-10 00:00:00 11.8 143.0 11.8 143.7 12.0 142.8 11.8 142.9 11.8 143.0 11.8 143.0
1979-01-10 06:00:00 12.1 141.7 12.2 141.5 12.2 141.5 12.3 141.5 12.0 141.7 12.1 141.7
1979-01-10 12:00:00 12.2 140.6 12.3 140.3 12.3 140.3 12.3 140.2 12.2 140.6 12.2 140.6
1979-01-10 18:00:00 12.2 139.8 12.4 139.2 12.4 139.1 12.2 139.2 12.3 139.7 12.2 139.8
1979-01-11 00:00:00 12.4 138.9 12.5 138.8 12.5 138.7 12.4 138.7 12.4 138.9 12.4 138.9
1979-01-11 06:00:00 12.7 138.3 12.8 138.0 12.7 138.1 12.7 138.2 12.7 138.3 12.7 138.3
1979-01-11 12:00:00 13.1 137.8 13.2 137.5 13.0 137.6 13.0 137.7 13.1 137.8 13.1 137.8
1979-01-11 18:00:00 13.4 137.6 13.5 137.2 13.5 137.2 13.5 137.2 13.4 137.5 13.4 137.6
1979-01-12 00:00:00 13.7 137.3 13.9 137.0 13.8 137.1 13.8 137.0 13.7 137.3 13.7 137.3
1979-01-12 06:00:00 14.1 137.0 14.2 136.9 14.2 136.8 14.2 136.8 14.1 136.9 14.1 137.0
1979-01-12 12:00:00 14.5 136.6 14.5 136.7 14.6 136.6 14.6 136.6 14.5 136.6 14.5 136.6
1979-01-12 18:00:00 15.0 136.5 15.0 136.6 15.1 136.6 15.0 136.5 15.0 136.5 15.0 136.5
1979-01-13 00:00:00 15.4 136.6 15.4 136.8 15.5 136.8 15.5 136.6 15.4 136.6 15.4 136.6
1979-01-13 06:00:00 15.8 136.9 15.8 136.9 15.9 136.9 15.9 136.8 15.8 137.0 15.8 136.9
1979-01-13 12:00:00 16.1 137.3 16.1 137.0 16.1 137.1 16.1 137.0 16.1 137.3 16.1 137.3
1979-01-13 18:00:00 16.1 137.0 16.3 136.9 16.5 137.5 16.3 136.9 16.2 137.1 16.1 137.0
1979-01-14 00:00:00 16.1 136.5 16.2 136.5 17.0 137.0 16.1 136.5 16.1 136.5 16.1 136.5
1979-01-14 06:00:00 16.0 136.0 16.2 135.8 16.8 135.8 16.0 136.0 16.0 135.8 16.0 136.0
jtwc_wp tokyo cma hko td9636 ds824_wp
1979-01-14 12:00:00 16.3 135.0 17.0 135.1 16.0 135.5 16.0 135.1
1979-01-14 18:00:00 16.5 134.0 17.3 134.3 16.0 134.9
1979-01-15 00:00:00 15.0 132.0 17.3 133.3
1979-01-15 06:00:00 17.2 132.3

top of pageTrack Data:Intensity

jtwc_wp tokyo cma hko td9636 ds824_wp
Date Wind Pres Wind Pres Wind Pres Wind Pres Wind Pres Wind Pres
1978-12-27 06:00:00
1978-12-27 12:00:00
1978-12-27 18:00:00
1978-12-28 00:00:00
1978-12-28 06:00:00
1978-12-28 12:00:00
1978-12-28 18:00:00
1978-12-29 00:00:00
1978-12-29 06:00:00
1978-12-29 12:00:00
1978-12-29 18:00:00
1978-12-30 00:00:00
1978-12-30 06:00:00
1978-12-30 12:00:00
1978-12-30 18:00:00
1978-12-31 00:00:00
1978-12-31 06:00:00 29. 1002.
1978-12-31 12:00:00 1004. 29. 1000.
1978-12-31 18:00:00 1002. 29. 1000.
1979-01-01 00:00:00 20. 1000. 39. 998. 20. 20.
1979-01-01 06:00:00 25. 1000. 39. 995. 20. 25.
1979-01-01 12:00:00 30. 1000. 39. 995. 25. 1000. 30. 30.
1979-01-01 18:00:00 35. 998. 49. 990. 30. 995. 30. 35.
1979-01-02 00:00:00 40. 50. 990. 49. 986. 35. 990. 40. 40.
1979-01-02 06:00:00 45. 50. 985. 49. 986. 45. 985. 40. 45.
jtwc_wp tokyo cma hko td9636 ds824_wp
1979-01-02 12:00:00 50. 50. 985. 49. 986. 45. 985. 50. 50.
1979-01-02 18:00:00 55. 55. 980. 49. 986. 50. 980. 50. 55.
1979-01-03 00:00:00 55. 55. 980. 49. 984. 50. 980. 55. 55.
1979-01-03 06:00:00 50. 55. 980. 49. 984. 45. 985. 55. 50.
1979-01-03 12:00:00 50. 55. 980. 49. 984. 45. 985. 50. 50.
1979-01-03 18:00:00 50. 55. 980. 49. 984. 45. 985. 50. 50.
1979-01-04 00:00:00 55. 55. 980. 49. 982. 45. 985. 55. 55.
1979-01-04 06:00:00 55. 50. 980. 58. 982. 45. 985. 55. 55.
1979-01-04 12:00:00 55. 50. 980. 58. 980. 45. 985. 55. 55.
1979-01-04 18:00:00 55. 50. 980. 58. 980. 50. 980. 55. 55.
1979-01-05 00:00:00 55. 50. 980. 58. 975. 50. 980. 55. 55.
1979-01-05 06:00:00 60. 55. 975. 58. 975. 55. 975. 55. 60.
1979-01-05 12:00:00 65. 55. 970. 58. 969. 55. 975. 65. 65.
1979-01-05 18:00:00 65. 60. 970. 58. 967. 65. 970. 65. 65.
1979-01-06 00:00:00 70. 65. 965. 58. 964. 65. 970. 70. 70.
1979-01-06 06:00:00 75. 70. 965. 68. 962. 70. 965. 70. 75.
1979-01-06 12:00:00 80. 70. 960. 68. 961. 70. 960. 80. 80.
1979-01-06 18:00:00 85. 70. 955. 68. 958. 70. 960. 80. 85.
1979-01-07 00:00:00 90. 75. 950. 78. 950. 75. 950. 90. 90.
1979-01-07 06:00:00 95. 80. 945. 78. 948. 80. 945. 90. 95.
1979-01-07 12:00:00 100. 85. 940. 87. 940. 85. 940. 100. 100.
1979-01-07 18:00:00 105. 90. 930. 97. 928. 90. 930. 100. 105.
1979-01-08 00:00:00 110. 90. 930. 97. 930. 100. 930. 110. 110.
1979-01-08 06:00:00 100. 95. 940. 97. 935. 110. 940. 110. 100.
jtwc_wp tokyo cma hko td9636 ds824_wp
1979-01-08 12:00:00 90. 95. 950. 87. 945. 110. 950. 90. 90.
1979-01-08 18:00:00 85. 90. 955. 87. 957. 95. 960. 90. 85.
1979-01-09 00:00:00 80. 90. 960. 87. 960. 90. 965. 80. 80.
1979-01-09 06:00:00 75. 85. 965. 78. 965. 85. 970. 80. 75.
1979-01-09 12:00:00 70. 80. 970. 78. 970. 70. 970. 70. 70.
1979-01-09 18:00:00 75. 70. 970. 78. 970. 70. 970. 70. 75.
1979-01-10 00:00:00 75. 70. 970. 78. 970. 70. 965. 75. 75.
1979-01-10 06:00:00 80. 70. 965. 78. 965. 70. 960. 75. 80.
1979-01-10 12:00:00 80. 70. 960. 78. 960. 70. 955. 80. 80.
1979-01-10 18:00:00 85. 70. 950. 78. 950. 75. 950. 80. 85.
1979-01-11 00:00:00 90. 75. 945. 87. 945. 75. 945. 90. 90.
1979-01-11 06:00:00 95. 80. 940. 87. 941. 80. 940. 90. 95.
1979-01-11 12:00:00 95. 80. 940. 87. 938. 85. 935. 95. 95.
1979-01-11 18:00:00 100. 90. 940. 87. 940. 85. 940. 95. 100.
1979-01-12 00:00:00 100. 80. 945. 87. 945. 80. 945. 100. 100.
1979-01-12 06:00:00 100. 80. 945. 87. 950. 80. 950. 100. 100.
1979-01-12 12:00:00 90. 75. 960. 78. 960. 75. 960. 90. 90.
1979-01-12 18:00:00 80. 70. 960. 78. 965. 70. 960. 90. 80.
1979-01-13 00:00:00 70. 70. 965. 68. 970. 65. 970. 70. 70.
1979-01-13 06:00:00 55. 70. 980. 68. 980. 60. 980. 70. 55.
1979-01-13 12:00:00 45. 65. 985. 58. 985. 60. 985. 45. 45.
1979-01-13 18:00:00 40. 55. 990. 58. 985. 50. 990. 45. 40.
1979-01-14 00:00:00 30. 55. 990. 49. 985. 40. 990. 30. 30.
1979-01-14 06:00:00 20. 40. 994. 49. 985. 35. 995. 30. 20.
jtwc_wp tokyo cma hko td9636 ds824_wp
1979-01-14 12:00:00 1000. 39. 990. 30. 1000.
1979-01-14 18:00:00 1004. 29. 994. 25. 1004.
1979-01-15 00:00:00 1012. 23. 998.
1979-01-15 06:00:00 19. 998.

top of page Links to source data

Source Source file Format
jtwc_wp bwp011979.txt ATCF
tokyo bst_all.txt:Line=27878:ALICE:7901 JMA text table
cma CH1979BST.txt:Storm=1:Alice CMA text table
hko tc-besttrack-data-current.txt:Line=12733:ALICE HKO Text table
td9636 cons_worldwide_trop_cyclone_18710101-19891231-003:Line=26406 TD 9636
ds824_wp w_npac.dat:941:ALICE HURDAT